Time,TemperatureF,DewpointF,PressureIn,WindDirection,WindDirectionDegrees,WindSpeedMPH,WindSpeedGustMPH,Humidity,HourlyPrecipIn,Conditions,Clouds,dailyrainin,SoftwareType,DateUTC
2013-02-10 00:02:00,37.6,34.1,30.10,North,0,1.7,-999.0,87,-99.99,,,0.00,Acu-Link.com,2013-02-10 08:02:00,
2013-02-10 00:18:00,37.0,33.8,30.10,North,0,1.1,-999.0,88,-99.99,,,0.00,Acu-Link.com,2013-02-10 08:18:00,
2013-02-10 00:33:00,37.2,34.0,30.11,North,0,1.1,-999.0,88,-99.99,,,0.00,Acu-Link.com,2013-02-10 08:33:00,
2013-02-10 00:48:00,37.0,33.8,30.11,North,0,1.1,-999.0,88,-99.99,,,0.00,Acu-Link.com,2013-02-10 08:48:00,
2013-02-10 01:19:00,36.5,33.6,30.10,North,0,2.7,-999.0,89,-99.99,,,0.00,Acu-Link.com,2013-02-10 09:19:00,
2013-02-10 01:34:00,36.3,33.4,30.10,North,0,2.2,-999.0,89,-99.99,,,0.00,Acu-Link.com,2013-02-10 09:34:00,
2013-02-10 01:49:00,36.3,33.7,30.10,North,0,1.7,-999.0,90,-99.99,,,0.00,Acu-Link.com,2013-02-10 09:49:00,
2013-02-10 02:04:00,36.1,33.5,30.10,North,0,1.7,-999.0,90,-99.99,,,0.00,Acu-Link.com,2013-02-10 10:04:00,
2013-02-10 02:19:00,36.3,33.7,30.09,North,0,0.0,-999.0,90,-99.99,,,0.00,Acu-Link.com,2013-02-10 10:19:00,
2013-02-10 02:35:00,36.0,33.4,30.09,North,0,0.0,-999.0,90,-99.99,,,0.00,Acu-Link.com,2013-02-10 10:35:00,
2013-02-10 02:50:00,35.1,32.5,30.09,North,0,0.0,-999.0,90,-99.99,,,0.00,Acu-Link.com,2013-02-10 10:50:00,
2013-02-10 03:05:00,34.5,31.9,30.10,North,0,0.0,-999.0,90,-99.99,,,0.00,Acu-Link.com,2013-02-10 11:05:00,
2013-02-10 03:20:00,34.0,31.4,30.09,North,0,1.1,-999.0,90,-99.99,,,0.00,Acu-Link.com,2013-02-10 11:20:00,
2013-02-10 03:36:00,34.0,31.4,30.09,North,0,0.0,-999.0,90,-99.99,,,0.00,Acu-Link.com,2013-02-10 11:36:00,
2013-02-10 03:51:00,34.0,31.7,30.09,North,0,0.0,-999.0,91,-99.99,,,0.00,Acu-Link.com,2013-02-10 11:51:00,
2013-02-10 04:06:00,34.9,32.5,30.09,North,0,0.0,-999.0,91,-99.99,,,0.00,Acu-Link.com,2013-02-10 12:06:00,
2013-02-10 04:21:00,35.1,33.0,30.08,North,0,0.0,-999.0,92,-99.99,,,0.00,Acu-Link.com,2013-02-10 12:21:00,
2013-02-10 04:36:00,34.7,32.6,30.09,North,0,0.0,-999.0,92,-99.99,,,0.00,Acu-Link.com,2013-02-10 12:36:00,
2013-02-10 04:52:00,34.7,32.6,30.09,North,0,0.0,-999.0,92,-99.99,,,0.00,Acu-Link.com,2013-02-10 12:52:00,
2013-02-10 05:07:00,34.2,32.1,30.09,North,0,0.0,-999.0,92,-99.99,,,0.00,Acu-Link.com,2013-02-10 13:07:00,
2013-02-10 05:22:00,34.7,32.6,30.09,North,0,0.0,-999.0,92,-99.99,,,0.00,Acu-Link.com,2013-02-10 13:22:00,
2013-02-10 05:37:00,34.9,33.1,30.08,North,0,0.0,-999.0,93,-99.99,,,0.00,Acu-Link.com,2013-02-10 13:37:00,
2013-02-10 05:53:00,35.1,33.3,30.08,North,0,0.0,-999.0,93,-99.99,,,0.00,Acu-Link.com,2013-02-10 13:53:00,
2013-02-10 06:08:00,34.5,32.7,30.09,North,0,0.0,-999.0,93,-99.99,,,0.00,Acu-Link.com,2013-02-10 14:08:00,
2013-02-10 06:23:00,34.7,32.9,30.09,North,0,0.0,-999.0,93,-99.99,,,0.00,Acu-Link.com,2013-02-10 14:23:00,
2013-02-10 06:38:00,34.9,33.1,30.09,North,0,0.0,-999.0,93,-99.99,,,0.00,Acu-Link.com,2013-02-10 14:38:00,
2013-02-10 06:53:00,35.2,33.4,30.09,North,0,0.0,-999.0,93,-99.99,,,0.00,Acu-Link.com,2013-02-10 14:53:00,
2013-02-10 07:09:00,35.6,33.8,30.10,North,0,0.0,-999.0,93,-99.99,,,0.00,Acu-Link.com,2013-02-10 15:09:00,
2013-02-10 07:24:00,36.9,35.1,30.10,North,0,0.0,-999.0,93,-99.99,,,0.00,Acu-Link.com,2013-02-10 15:24:00,
2013-02-10 07:39:00,37.8,36.0,30.10,North,0,0.0,-999.0,93,-99.99,,,0.00,Acu-Link.com,2013-02-10 15:39:00,
2013-02-10 07:54:00,38.8,37.0,30.10,North,0,0.0,-999.0,93,-99.99,,,0.00,Acu-Link.com,2013-02-10 15:54:00,
2013-02-10 08:09:00,42.8,40.9,30.10,North,0,1.1,-999.0,93,-99.99,,,0.00,Acu-Link.com,2013-02-10 16:09:00,
2013-02-10 08:25:00,48.0,44.6,30.11,North,0,0.0,-999.0,88,-99.99,,,0.00,Acu-Link.com,2013-02-10 16:25:00,
2013-02-10 08:40:00,45.5,41.3,30.09,North,0,3.2,-999.0,85,-99.99,,,0.00,Acu-Link.com,2013-02-10 16:40:00,
2013-02-10 08:55:00,47.5,42.6,30.08,North,0,3.7,-999.0,83,-99.99,,,0.00,Acu-Link.com,2013-02-10 16:55:00,
2013-02-10 09:10:00,53.4,47.4,30.07,North,0,3.7,-999.0,80,-99.99,,,0.00,Acu-Link.com,2013-02-10 17:10:00,
2013-02-10 09:25:00,55.4,48.3,30.07,North,0,1.7,-999.0,77,-99.99,,,0.00,Acu-Link.com,2013-02-10 17:25:00,
2013-02-10 09:41:00,54.9,47.1,30.06,North,0,4.2,-999.0,75,-99.99,,,0.00,Acu-Link.com,2013-02-10 17:41:00,
2013-02-10 09:56:00,53.4,45.3,30.06,North,0,2.7,-999.0,74,-99.99,,,0.00,Acu-Link.com,2013-02-10 17:56:00,
2013-02-10 10:11:00,52.9,44.5,30.05,North,0,1.1,-999.0,73,-99.99,,,0.00,Acu-Link.com,2013-02-10 18:11:00,
2013-02-10 10:26:00,53.6,44.8,30.05,North,0,3.7,-999.0,72,-99.99,,,0.00,Acu-Link.com,2013-02-10 18:26:00,
2013-02-10 10:41:00,52.2,43.4,30.06,North,0,5.3,-999.0,72,-99.99,,,0.00,Acu-Link.com,2013-02-10 18:41:00,
2013-02-10 10:57:00,55.6,46.0,30.05,North,0,4.7,-999.0,70,-99.99,,,0.00,Acu-Link.com,2013-02-10 18:57:00,
2013-02-10 11:12:00,56.5,46.1,30.05,North,0,3.2,-999.0,68,-99.99,,,0.00,Acu-Link.com,2013-02-10 19:12:00,
2013-02-10 11:27:00,54.5,43.8,30.04,SSW,202,3.2,-999.0,67,-99.99,,,0.00,Acu-Link.com,2013-02-10 19:27:00,
2013-02-10 11:42:00,53.8,43.1,30.05,South,180,2.2,-999.0,67,-99.99,,,0.00,Acu-Link.com,2013-02-10 19:42:00,
2013-02-10 11:58:00,54.7,44.0,30.04,NW,315,0.0,-999.0,67,-99.99,,,0.00,Acu-Link.com,2013-02-10 19:58:00,
2013-02-10 12:13:00,54.3,43.2,30.04,SSW,202,2.2,-999.0,66,-99.99,,,0.00,Acu-Link.com,2013-02-10 20:13:00,
2013-02-10 12:28:00,57.7,46.0,30.04,SSE,157,3.2,-999.0,65,-99.99,,,0.00,Acu-Link.com,2013-02-10 20:28:00,
2013-02-10 12:43:00,58.5,45.9,30.03,East,90,4.7,-999.0,63,-99.99,,,0.00,Acu-Link.com,2013-02-10 20:43:00,
2013-02-10 12:58:00,58.6,45.6,30.02,WSW,247,4.2,-999.0,62,-99.99,,,0.00,Acu-Link.com,2013-02-10 20:58:00,
2013-02-10 13:14:00,57.0,44.1,30.02,South,180,4.2,-999.0,62,-99.99,,,0.00,Acu-Link.com,2013-02-10 21:14:00,
2013-02-10 13:29:00,57.7,44.8,30.02,SSW,202,4.7,-999.0,62,-99.99,,,0.00,Acu-Link.com,2013-02-10 21:29:00,
2013-02-10 13:44:00,56.8,44.3,30.02,SW,225,4.7,-999.0,63,-99.99,,,0.00,Acu-Link.com,2013-02-10 21:44:00,
2013-02-10 13:59:00,55.2,42.8,30.02,SSE,157,4.7,-999.0,63,-99.99,,,0.00,Acu-Link.com,2013-02-10 21:59:00,
2013-02-10 14:14:00,54.5,42.6,30.01,SSE,157,5.8,-999.0,64,-99.99,,,0.00,Acu-Link.com,2013-02-10 22:14:00,
2013-02-10 14:30:00,54.3,42.4,30.02,South,180,3.7,-999.0,64,-99.99,,,0.00,Acu-Link.com,2013-02-10 22:30:00,
2013-02-10 14:45:00,54.3,42.8,30.00,South,180,6.8,-999.0,65,-99.99,,,0.00,Acu-Link.com,2013-02-10 22:45:00,
2013-02-10 15:00:00,54.3,42.8,29.99,SSE,157,3.7,-999.0,65,-99.99,,,0.00,Acu-Link.com,2013-02-10 23:00:00,
2013-02-10 15:15:00,54.1,42.6,29.99,ESE,112,6.3,-999.0,65,-99.99,,,0.00,Acu-Link.com,2013-02-10 23:15:00,
2013-02-10 15:31:00,55.8,44.2,30.00,SSE,157,6.3,-999.0,65,-99.99,,,0.00,Acu-Link.com,2013-02-10 23:31:00,
2013-02-10 15:46:00,53.8,42.3,30.00,SSW,202,5.3,-999.0,65,-99.99,,,0.00,Acu-Link.com,2013-02-10 23:46:00,
2013-02-10 16:01:00,53.2,41.7,30.00,SSW,202,3.2,-999.0,65,-99.99,,,0.00,Acu-Link.com,2013-02-11 00:01:00,
2013-02-10 16:16:00,53.2,41.7,30.01,SSW,202,2.7,-999.0,65,-99.99,,,0.00,Acu-Link.com,2013-02-11 00:16:00,
2013-02-10 16:31:00,52.9,41.9,30.01,South,180,4.7,-999.0,66,-99.99,,,0.00,Acu-Link.com,2013-02-11 00:31:00,
2013-02-10 16:47:00,53.2,42.5,30.01,SW,225,1.7,-999.0,67,-99.99,,,0.00,Acu-Link.com,2013-02-11 00:47:00,
2013-02-10 17:02:00,52.3,42.1,30.00,WSW,247,2.7,-999.0,68,-99.99,,,0.00,Acu-Link.com,2013-02-11 01:02:00,
2013-02-10 17:17:00,50.4,41.0,30.00,North,0,3.2,-999.0,70,-99.99,,,0.00,Acu-Link.com,2013-02-11 01:17:00,
2013-02-10 17:32:00,49.8,41.1,29.99,North,0,0.0,-999.0,72,-99.99,,,0.00,Acu-Link.com,2013-02-11 01:32:00,
2013-02-10 17:47:00,48.6,40.3,30.00,North,0,0.0,-999.0,73,-99.99,,,0.00,Acu-Link.com,2013-02-11 01:47:00,
2013-02-10 18:03:00,47.1,39.6,30.00,North,0,0.0,-999.0,75,-99.99,,,0.00,Acu-Link.com,2013-02-11 02:03:00,
2013-02-10 18:18:00,45.9,39.1,30.01,North,0,0.0,-999.0,77,-99.99,,,0.00,Acu-Link.com,2013-02-11 02:18:00,
2013-02-10 18:33:00,45.0,38.6,30.00,North,0,1.1,-999.0,78,-99.99,,,0.00,Acu-Link.com,2013-02-11 02:33:00,
2013-02-10 18:48:00,44.4,38.6,30.00,North,0,0.0,-999.0,80,-99.99,,,0.00,Acu-Link.com,2013-02-11 02:48:00,
2013-02-10 19:03:00,44.2,39.1,30.02,North,0,0.0,-999.0,82,-99.99,,,0.00,Acu-Link.com,2013-02-11 03:03:00,
2013-02-10 19:19:00,43.5,38.4,30.02,North,0,0.0,-999.0,82,-99.99,,,0.00,Acu-Link.com,2013-02-11 03:19:00,
2013-02-10 19:34:00,43.0,38.2,30.03,North,0,0.0,-999.0,83,-99.99,,,0.00,Acu-Link.com,2013-02-11 03:34:00,
2013-02-10 19:49:00,42.4,38.2,30.03,North,0,0.0,-999.0,85,-99.99,,,0.00,Acu-Link.com,2013-02-11 03:49:00,
2013-02-10 20:04:00,41.9,37.7,30.04,North,0,0.0,-999.0,85,-99.99,,,0.00,Acu-Link.com,2013-02-11 04:04:00,
2013-02-10 20:19:00,41.4,37.5,30.04,North,0,0.0,-999.0,86,-99.99,,,0.00,Acu-Link.com,2013-02-11 04:19:00,
2013-02-10 20:35:00,40.8,37.2,30.05,North,0,0.0,-999.0,87,-99.99,,,0.00,Acu-Link.com,2013-02-11 04:35:00,
2013-02-10 20:50:00,40.3,37.0,30.05,North,0,0.0,-999.0,88,-99.99,,,0.00,Acu-Link.com,2013-02-11 04:50:00,
2013-02-10 21:05:00,40.1,36.8,30.04,North,0,0.0,-999.0,88,-99.99,,,0.00,Acu-Link.com,2013-02-11 05:05:00,
2013-02-10 21:20:00,40.1,37.1,30.06,North,0,0.0,-999.0,89,-99.99,,,0.00,Acu-Link.com,2013-02-11 05:20:00,
2013-02-10 21:36:00,39.2,36.2,30.05,North,0,0.0,-999.0,89,-99.99,,,0.00,Acu-Link.com,2013-02-11 05:36:00,
2013-02-10 21:51:00,38.8,36.1,30.06,North,0,0.0,-999.0,90,-99.99,,,0.00,Acu-Link.com,2013-02-11 05:51:00,
2013-02-10 22:06:00,38.7,36.0,30.05,North,0,0.0,-999.0,90,-99.99,,,0.00,Acu-Link.com,2013-02-11 06:06:00,
2013-02-10 22:21:00,38.1,35.4,30.06,North,0,0.0,-999.0,90,-99.99,,,0.00,Acu-Link.com,2013-02-11 06:21:00,
2013-02-10 22:36:00,38.3,35.9,30.06,North,0,0.0,-999.0,91,-99.99,,,0.00,Acu-Link.com,2013-02-11 06:36:00,
2013-02-10 22:52:00,38.1,35.7,30.07,North,0,0.0,-999.0,91,-99.99,,,0.00,Acu-Link.com,2013-02-11 06:52:00,
2013-02-10 23:07:00,37.8,35.4,30.08,North,0,1.7,-999.0,91,-99.99,,,0.00,Acu-Link.com,2013-02-11 07:07:00,
2013-02-10 23:22:00,38.7,36.6,30.08,North,0,1.1,-999.0,92,-99.99,,,0.00,Acu-Link.com,2013-02-11 07:22:00,
2013-02-10 23:37:00,38.5,36.4,30.08,North,0,0.0,-999.0,92,-99.99,,,0.00,Acu-Link.com,2013-02-11 07:37:00,
2013-02-10 23:52:00,38.5,36.4,30.09,North,0,0.0,-999.0,92,-99.99,,,0.00,Acu-Link.com,2013-02-11 07:52:00,